Time;durP1;ratioP1;P1;durP2;ratioP2;P2;SDS_P1;SDS_P2;PMS_P1;PMS_P2;Temp;Humidity;BMP_temperature;BMP_pressure;BME280_temperature;BME280_humidity;BME280_pressure;Samples;Min_cycle;Max_cycle;Signal;HPM_P1;HPM_P2
2023/08/20 00:01:32;;;;;;;8.60;7.55;;;30.00;80.80;;;;;;5029307;28;20022;-88
2023/08/20 00:03:58;;;;;;;8.80;7.95;;;29.90;81.10;;;;;;5008316;28;20037;-79
2023/08/20 00:06:24;;;;;;;9.10;7.82;;;29.90;81.10;;;;;;5031994;28;20073;-78
2023/08/20 00:08:50;;;;;;;9.23;7.50;;;29.90;81.30;;;;;;5014102;28;20030;-79
2023/08/20 00:11:17;;;;;;;8.77;7.88;;;29.90;81.50;;;;;;5014157;28;20373;-79
2023/08/20 00:13:42;;;;;;;8.35;7.47;;;29.90;81.50;;;;;;5027998;28;20120;-79
2023/08/20 00:16:09;;;;;;;10.00;8.77;;;29.90;81.70;;;;;;5035441;28;20105;-79
2023/08/20 00:18:35;;;;;;;9.40;8.48;;;29.80;81.70;;;;;;5044464;28;20022;-79
2023/08/20 00:21:01;;;;;;;9.93;7.90;;;29.80;81.70;;;;;;5021043;28;20519;-79
2023/08/20 00:23:27;;;;;;;9.38;8.48;;;29.80;81.90;;;;;;5038160;28;20037;-79
2023/08/20 00:25:53;;;;;;;9.65;8.75;;;29.80;82.10;;;;;;5035927;28;20144;-79
2023/08/20 00:28:22;;;;;;;9.85;8.20;;;29.70;82.00;;;;;;5018887;28;20038;-79
2023/08/20 00:30:49;;;;;;;9.35;8.45;;;29.70;82.20;;;;;;5018236;28;20124;-79
2023/08/20 00:33:14;;;;;;;9.38;8.48;;;29.70;82.30;;;;;;5040803;28;20029;-79
2023/08/20 00:35:40;;;;;;;8.68;7.88;;;29.60;82.50;;;;;;5035730;28;20493;-79
2023/08/20 00:38:06;;;;;;;16.60;9.55;;;29.60;82.60;;;;;;5034996;28;20061;-79
2023/08/20 00:40:31;;;;;;;11.55;8.18;;;29.60;82.80;;;;;;5017429;28;20112;-79
2023/08/20 00:42:57;;;;;;;12.07;8.98;;;29.60;82.90;;;;;;5042847;28;20040;-79
2023/08/20 00:45:24;;;;;;;11.77;8.40;;;29.50;82.90;;;;;;5046599;28;20430;-78
2023/08/20 00:47:50;;;;;;;8.90;8.10;;;29.50;82.90;;;;;;5040151;28;20112;-78
2023/08/20 00:50:16;;;;;;;12.40;8.50;;;29.60;83.10;;;;;;5036216;28;20061;-78
2023/08/20 00:52:43;;;;;;;13.27;8.80;;;29.60;83.20;;;;;;5043233;28;20041;-78
2023/08/20 00:55:11;;;;;;;11.15;8.50;;;29.60;83.20;;;;;;5035853;28;20079;-78
2023/08/20 00:57:37;;;;;;;11.15;8.63;;;29.60;83.20;;;;;;5035467;28;20575;-78
2023/08/20 01:00:09;;;;;;;10.65;8.60;;;29.60;83.20;;;;;;5037474;28;20037;-78
2023/08/20 01:02:35;;;;;;;9.45;8.55;;;29.60;83.20;;;;;;5042390;28;20024;-78
2023/08/20 01:05:02;;;;;;;12.10;8.65;;;29.60;83.20;;;;;;5034975;28;20056;-78
2023/08/20 01:07:34;;;;;;;10.38;8.10;;;29.60;83.20;;;;;;5035385;28;20052;-78
2023/08/20 01:10:00;;;;;;;9.88;8.88;;;29.50;83.20;;;;;;5018145;28;20394;-78
2023/08/20 01:12:26;;;;;;;10.63;8.35;;;29.60;83.40;;;;;;5034072;28;20044;-78
2023/08/20 01:14:52;;;;;;;8.88;8.00;;;29.60;83.40;;;;;;5035496;28;20026;-78
2023/08/20 01:17:18;;;;;;;9.63;8.60;;;29.60;83.60;;;;;;5035259;28;20017;-78
2023/08/20 01:19:44;;;;;;;10.02;8.07;;;29.50;83.50;;;;;;5035738;28;20025;-79
2023/08/20 01:22:57;;;;;;;8.98;8.07;;;29.50;83.50;;;;;;5041537;28;20045;-79
2023/08/20 01:26:00;;;;;;;10.68;8.63;;;29.50;83.70;;;;;;4953824;28;20035;-80
2023/08/20 01:28:29;;;;;;;10.07;9.13;;;29.50;83.70;;;;;;5000776;28;20037;-79
2023/08/20 01:30:57;;;;;;;11.10;8.57;;;29.40;83.60;;;;;;5033977;28;20029;-79
2023/08/20 01:33:24;;;;;;;10.35;7.93;;;29.40;83.70;;;;;;5033773;28;20104;-79
2023/08/20 01:35:51;;;;;;;8.90;8.00;;;29.40;83.90;;;;;;5034935;28;20045;-78
2023/08/20 01:38:16;;;;;;;10.82;9.73;;;29.40;83.90;;;;;;5035307;28;20026;-78
2023/08/20 01:40:43;;;;;;;10.02;8.90;;;29.40;84.00;;;;;;5038727;28;20021;-78
2023/08/20 01:43:08;;;;;;;9.98;8.23;;;29.30;84.10;;;;;;5043922;28;20032;-78
2023/08/20 01:45:34;;;;;;;10.80;9.15;;;29.30;84.20;;;;;;5034621;28;20362;-78
2023/08/20 01:48:00;;;;;;;12.27;9.13;;;29.30;84.20;;;;;;5017558;28;20116;-78
2023/08/20 01:50:26;;;;;;;10.43;8.98;;;29.30;84.30;;;;;;5034521;28;20117;-78
2023/08/20 01:52:51;;;;;;;9.70;8.70;;;29.20;84.40;;;;;;5033590;28;20441;-78
2023/08/20 01:55:17;;;;;;;9.13;8.27;;;29.20;84.70;;;;;;5033592;28;20417;-77
2023/08/20 01:57:43;;;;;;;10.38;9.25;;;29.10;84.60;;;;;;5033115;28;20021;-79
2023/08/20 02:00:09;;;;;;;10.55;8.32;;;29.10;84.80;;;;;;5040271;28;20071;-79
2023/08/20 02:02:35;;;;;;;9.82;8.82;;;29.10;84.80;;;;;;5042429;28;20052;-79
2023/08/20 02:05:01;;;;;;;8.85;7.95;;;29.10;84.90;;;;;;5033885;28;20087;-79
2023/08/20 02:07:27;;;;;;;9.38;8.48;;;29.10;85.00;;;;;;5034296;28;20117;-78
2023/08/20 02:09:52;;;;;;;9.00;8.10;;;29.10;84.90;;;;;;5016586;28;20440;-79
2023/08/20 02:12:18;;;;;;;9.15;8.25;;;29.10;85.00;;;;;;5032574;28;20144;-80
2023/08/20 02:14:44;;;;;;;10.02;9.02;;;29.00;84.90;;;;;;5034102;28;20098;-80
2023/08/20 02:17:12;;;;;;;10.45;8.20;;;29.00;84.90;;;;;;5015616;28;20026;-79
2023/08/20 02:19:38;;;;;;;9.00;8.02;;;29.00;85.40;;;;;;5034019;28;20084;-79
2023/08/20 02:22:03;;;;;;;11.60;8.45;;;29.00;84.90;;;;;;5033009;28;20026;-79
2023/08/20 02:24:29;;;;;;;9.05;8.15;;;29.00;84.90;;;;;;5034307;28;20466;-79
2023/08/20 02:26:55;;;;;;;13.93;8.85;;;29.00;85.00;;;;;;5027549;28;20126;-79
2023/08/20 02:29:21;;;;;;;9.82;8.85;;;29.00;85.10;;;;;;5034045;28;20450;-79
2023/08/20 02:31:46;;;;;;;10.98;8.85;;;28.90;85.10;;;;;;5033115;28;20393;-79
2023/08/20 02:34:12;;;;;;;10.73;9.63;;;28.80;85.20;;;;;;5033858;28;20021;-79
2023/08/20 02:36:38;;;;;;;9.45;8.48;;;28.70;85.70;;;;;;5032847;28;20033;-77
2023/08/20 02:39:07;;;;;;;12.43;9.00;;;28.70;85.80;;;;;;5034370;28;20340;-79
2023/08/20 02:41:35;;;;;;;10.90;9.15;;;28.60;85.90;;;;;;5014828;28;20033;-79
2023/08/20 02:44:02;;;;;;;9.43;8.20;;;28.60;86.10;;;;;;5033795;28;20047;-79
2023/08/20 02:46:28;;;;;;;9.52;8.60;;;28.60;86.20;;;;;;5033216;28;20087;-79
2023/08/20 02:48:54;;;;;;;9.77;8.88;;;28.60;86.10;;;;;;5033468;28;20025;-79
2023/08/20 02:51:20;;;;;;;10.52;8.77;;;28.60;86.20;;;;;;5032969;28;20389;-79
2023/08/20 02:53:46;;;;;;;9.00;8.10;;;28.60;86.10;;;;;;5032971;28;20036;-79
2023/08/20 02:56:11;;;;;;;10.85;8.73;;;28.60;86.10;;;;;;5032841;28;20021;-79
2023/08/20 02:58:37;;;;;;;9.98;8.50;;;28.60;86.00;;;;;;5033577;28;20036;-79
2023/08/20 03:01:03;;;;;;;11.55;8.38;;;28.60;86.10;;;;;;5032909;28;20057;-79
2023/08/20 03:33:37;;;;;;;10.02;8.15;;;28.30;86.70;;;;;;4980659;23;20062;-80
2023/08/20 03:43:32;;;;;;;8.70;7.82;;;28.20;86.90;;;;;;5011541;28;20444;-80
2023/08/20 03:47:01;;;;;;;7.50;6.78;;;28.20;86.80;;;;;;4994730;28;20033;-80
2023/08/20 03:50:18;;;;;;;7.88;7.13;;;28.20;86.80;;;;;;4991606;28;20040;-78
2023/08/20 03:55:27;;;;;;;8.30;7.32;;;28.10;86.70;;;;;;5002840;23;20062;-78
2023/08/20 03:57:53;;;;;;;8.68;7.13;;;28.00;86.70;;;;;;4999008;23;20049;-77
2023/08/20 04:00:18;;;;;;;7.18;6.57;;;28.00;86.90;;;;;;4993190;28;20031;-77
2023/08/20 04:02:44;;;;;;;10.65;7.53;;;28.00;86.80;;;;;;4992139;28;20097;-77
2023/08/20 04:05:10;;;;;;;7.82;6.80;;;28.00;87.00;;;;;;4993220;28;20033;-77
2023/08/20 04:07:35;;;;;;;7.40;6.72;;;28.00;86.90;;;;;;4993576;28;20065;-77
2023/08/20 04:10:01;;;;;;;7.13;6.43;;;28.00;86.80;;;;;;4993183;28;20035;-77
2023/08/20 04:12:27;;;;;;;9.10;7.13;;;28.00;86.60;;;;;;4984954;28;20045;-79
2023/08/20 04:14:52;;;;;;;7.50;6.75;;;28.00;86.50;;;;;;4993167;28;20046;-77
2023/08/20 04:17:18;;;;;;;8.60;6.72;;;28.10;86.40;;;;;;4993147;28;20037;-77
2023/08/20 04:19:44;;;;;;;7.93;6.45;;;28.10;86.20;;;;;;4993192;28;20367;-77
2023/08/20 04:22:09;;;;;;;6.53;5.82;;;28.10;86.20;;;;;;4993082;28;20038;-78
2023/08/20 04:24:35;;;;;;;8.20;6.88;;;28.00;86.10;;;;;;4993165;28;20022;-78
2023/08/20 04:27:01;;;;;;;8.38;7.05;;;28.00;86.10;;;;;;4989553;28;20412;-78
2023/08/20 04:29:27;;;;;;;9.10;6.32;;;27.90;86.00;;;;;;4990098;28;20101;-77
2023/08/20 04:31:53;;;;;;;7.50;6.00;;;27.90;86.20;;;;;;4992675;28;20035;-79
2023/08/20 04:34:18;;;;;;;7.15;6.32;;;27.90;86.30;;;;;;4993806;28;20340;-79
2023/08/20 04:36:44;;;;;;;8.10;6.18;;;27.90;86.30;;;;;;4993380;28;20432;-79
2023/08/20 04:39:10;;;;;;;7.88;7.18;;;27.80;86.20;;;;;;4993754;28;20049;-79
2023/08/20 04:41:35;;;;;;;8.27;6.75;;;27.80;86.10;;;;;;4993277;28;20022;-77
2023/08/20 04:44:01;;;;;;;8.45;6.13;;;27.90;86.00;;;;;;4993390;28;20026;-77
2023/08/20 04:46:28;;;;;;;6.95;6.25;;;27.90;85.70;;;;;;4992647;28;20109;-78
2023/08/20 04:48:54;;;;;;;6.32;5.72;;;27.80;85.70;;;;;;4986450;28;20048;-79
2023/08/20 04:51:19;;;;;;;7.20;6.50;;;27.90;85.70;;;;;;4992732;28;20462;-80
2023/08/20 04:53:47;;;;;;;6.20;5.70;;;27.90;85.50;;;;;;4975714;28;20038;-77
2023/08/20 04:56:13;;;;;;;7.15;6.00;;;27.90;85.40;;;;;;4992223;28;20462;-80
2023/08/20 04:58:38;;;;;;;8.65;6.07;;;27.90;85.20;;;;;;4992558;28;20077;-80
2023/08/20 05:01:05;;;;;;;6.68;5.80;;;27.90;85.00;;;;;;4984157;28;20027;-80
2023/08/20 05:03:31;;;;;;;6.68;6.07;;;27.90;84.80;;;;;;4996482;28;20018;-80
2023/08/20 05:05:57;;;;;;;6.85;6.22;;;27.90;84.90;;;;;;4977582;28;20023;-78
2023/08/20 05:08:22;;;;;;;6.95;6.28;;;27.90;85.00;;;;;;4978801;28;20026;-80
2023/08/20 05:10:50;;;;;;;6.68;5.80;;;27.90;85.00;;;;;;4994743;28;20422;-81
2023/08/20 05:13:16;;;;;;;6.20;5.60;;;27.90;84.80;;;;;;4995838;28;20014;-79
2023/08/20 05:15:42;;;;;;;6.70;6.05;;;28.00;84.50;;;;;;4995910;28;20031;-81
2023/08/20 05:18:08;;;;;;;6.40;5.80;;;28.10;84.40;;;;;;4996646;28;20030;-83
2023/08/20 05:20:34;;;;;;;8.25;6.65;;;28.10;84.10;;;;;;4993603;28;20053;-82
2023/08/20 05:23:00;;;;;;;6.75;6.15;;;28.10;84.30;;;;;;4959560;28;20079;-84
2023/08/20 05:25:26;;;;;;;7.20;6.45;;;28.10;84.00;;;;;;4988094;28;20030;-86
2023/08/20 05:27:51;;;;;;;6.30;5.70;;;28.10;83.90;;;;;;4993124;28;20034;-84
2023/08/20 05:30:17;;;;;;;6.65;5.78;;;28.10;83.90;;;;;;4990872;28;20490;-83
2023/08/20 05:32:43;;;;;;;8.75;6.00;;;28.10;83.80;;;;;;4994162;28;20026;-83
2023/08/20 05:35:08;;;;;;;6.32;5.63;;;28.10;83.70;;;;;;4988961;28;20120;-84
2023/08/20 05:37:34;;;;;;;7.20;5.72;;;28.10;83.80;;;;;;4997701;28;20093;-84
2023/08/20 05:40:00;;;;;;;6.47;5.90;;;28.10;83.80;;;;;;5001523;28;20185;-82
2023/08/20 05:42:25;;;;;;;8.65;6.22;;;28.10;84.00;;;;;;4989454;28;20081;-83
2023/08/20 05:44:51;;;;;;;6.45;5.82;;;28.10;84.10;;;;;;4981646;28;20038;-82
2023/08/20 05:47:17;;;;;;;7.38;6.30;;;28.10;84.10;;;;;;4995441;28;20030;-82
2023/08/20 05:49:42;;;;;;;6.60;5.63;;;28.10;84.00;;;;;;4991517;28;20034;-82
2023/08/20 05:52:08;;;;;;;7.72;5.82;;;28.10;83.90;;;;;;4989845;28;20036;-82
2023/08/20 05:54:34;;;;;;;7.93;6.30;;;28.10;83.90;;;;;;4984970;28;20474;-82
2023/08/20 05:57:01;;;;;;;6.30;5.70;;;28.20;84.00;;;;;;5001083;28;20041;-82
2023/08/20 05:59:27;;;;;;;6.63;5.88;;;28.20;83.90;;;;;;4994480;28;20034;-82
2023/08/20 06:01:54;;;;;;;6.15;5.50;;;28.30;83.90;;;;;;4995432;28;20528;-82
2023/08/20 06:04:20;;;;;;;7.47;6.03;;;28.30;83.70;;;;;;4997598;28;20026;-83
2023/08/20 06:06:46;;;;;;;6.47;5.88;;;28.30;83.50;;;;;;4996642;28;20072;-83
2023/08/20 06:09:11;;;;;;;6.57;5.97;;;28.30;83.30;;;;;;4998249;28;20066;-82
2023/08/20 06:11:37;;;;;;;6.40;5.80;;;28.30;83.40;;;;;;4989363;28;20474;-81
2023/08/20 06:14:03;;;;;;;6.15;5.55;;;28.30;83.20;;;;;;4974534;28;20045;-81
2023/08/20 06:16:29;;;;;;;8.75;6.65;;;28.30;83.20;;;;;;4975613;28;20076;-81
2023/08/20 06:18:54;;;;;;;6.90;5.50;;;28.30;83.30;;;;;;4972066;28;20113;-81
2023/08/20 06:21:20;;;;;;;6.50;5.90;;;28.30;83.20;;;;;;4996442;28;20110;-83
2023/08/20 06:23:46;;;;;;;7.03;5.95;;;28.30;83.20;;;;;;4994227;28;20051;-82
2023/08/20 06:26:11;;;;;;;7.63;5.60;;;28.40;83.30;;;;;;5000447;28;20034;-81
2023/08/20 06:28:37;;;;;;;6.32;5.75;;;28.40;83.10;;;;;;4997338;28;20036;-81
2023/08/20 06:31:03;;;;;;;7.05;6.35;;;28.50;83.20;;;;;;5001715;28;20501;-81
2023/08/20 06:33:29;;;;;;;6.85;6.10;;;28.50;82.90;;;;;;4997436;28;20030;-83
2023/08/20 06:35:55;;;;;;;6.35;5.40;;;28.60;82.70;;;;;;4993173;28;20030;-81
2023/08/20 06:38:20;;;;;;;6.68;6.07;;;28.60;82.40;;;;;;4994190;28;20034;-81
2023/08/20 06:40:46;;;;;;;6.18;5.57;;;28.70;82.50;;;;;;4998179;28;20031;-84
2023/08/20 06:43:13;;;;;;;6.75;6.15;;;28.70;82.30;;;;;;4998284;28;20030;-83
2023/08/20 06:45:39;;;;;;;6.43;5.60;;;28.70;82.20;;;;;;4994682;28;20038;-83
2023/08/20 06:48:05;;;;;;;6.00;5.50;;;28.80;82.10;;;;;;4993718;28;20038;-84
2023/08/20 06:50:31;;;;;;;6.88;5.70;;;28.80;82.00;;;;;;4994677;28;20026;-83
2023/08/20 06:53:00;;;;;;;6.55;5.72;;;28.90;82.10;;;;;;4977187;28;20498;-84
2023/08/20 06:55:26;;;;;;;6.22;5.63;;;28.90;81.90;;;;;;4977830;28;20058;-84
2023/08/20 06:57:51;;;;;;;6.43;5.80;;;29.00;81.70;;;;;;5005702;28;20073;-84
2023/08/20 07:00:19;;;;;;;6.05;5.45;;;29.00;81.40;;;;;;4997156;28;20033;-84
2023/08/20 07:02:44;;;;;;;6.28;5.38;;;29.10;81.30;;;;;;4994196;28;20114;-84
2023/08/20 07:05:10;;;;;;;6.97;6.22;;;29.10;81.10;;;;;;4994492;28;20058;-83
2023/08/20 07:07:36;;;;;;;6.82;6.13;;;29.10;81.40;;;;;;4998358;28;20037;-84
2023/08/20 07:10:03;;;;;;;6.72;5.57;;;29.20;80.70;;;;;;4994789;28;20026;-84
2023/08/20 07:12:29;;;;;;;6.72;5.43;;;29.20;80.60;;;;;;4999551;28;20104;-84
2023/08/20 07:14:54;;;;;;;6.30;5.70;;;29.30;80.60;;;;;;4997017;28;20593;-84
2023/08/20 07:17:20;;;;;;;8.15;5.93;;;29.30;80.50;;;;;;4995342;28;20105;-85
2023/08/20 07:19:46;;;;;;;8.35;5.90;;;29.40;80.40;;;;;;4994540;28;20383;-85
2023/08/20 07:22:12;;;;;;;6.93;6.22;;;29.50;80.40;;;;;;4994182;28;20025;-85
2023/08/20 07:24:37;;;;;;;6.35;5.72;;;29.60;80.40;;;;;;4994155;28;20111;-85
2023/08/20 07:27:10;;;;;;;6.25;5.65;;;29.60;80.10;;;;;;4993276;28;20030;-85
2023/08/20 07:29:36;;;;;;;7.47;5.65;;;29.60;79.80;;;;;;4975169;28;20034;-84
2023/08/20 07:32:03;;;;;;;6.65;5.95;;;29.70;79.90;;;;;;4986637;28;20038;-85
2023/08/20 07:34:30;;;;;;;8.07;5.97;;;29.80;78.90;;;;;;4991202;28;20032;-85
2023/08/20 07:36:56;;;;;;;8.57;5.57;;;29.80;79.00;;;;;;4993274;28;20026;-85
2023/08/20 07:39:22;;;;;;;6.18;5.57;;;29.80;78.30;;;;;;4994308;28;20046;-84
2023/08/20 07:41:48;;;;;;;6.68;6.07;;;29.90;78.50;;;;;;4992466;28;20058;-84
2023/08/20 07:44:13;;;;;;;7.13;5.68;;;29.90;78.50;;;;;;4986109;28;20478;-84
2023/08/20 07:46:39;;;;;;;17.00;6.43;;;30.00;78.50;;;;;;5009470;28;20033;-84
2023/08/20 07:49:05;;;;;;;6.10;5.35;;;30.10;78.40;;;;;;5010983;28;20044;-84
2023/08/20 07:51:30;;;;;;;8.20;5.97;;;30.10;78.30;;;;;;5014002;28;20073;-84
2023/08/20 07:53:58;;;;;;;6.05;5.55;;;30.20;78.20;;;;;;4994238;28;20348;-84
2023/08/20 07:56:24;;;;;;;6.15;5.65;;;30.30;77.60;;;;;;5011844;28;20478;-84
2023/08/20 07:58:50;;;;;;;6.35;5.75;;;30.30;77.10;;;;;;5001512;28;20049;-84
2023/08/20 08:01:16;;;;;;;7.63;5.75;;;30.40;77.10;;;;;;4994536;28;20113;-84
2023/08/20 08:03:42;;;;;;;6.35;5.75;;;30.50;76.90;;;;;;5007045;28;20097;-84
2023/08/20 08:06:08;;;;;;;6.32;5.72;;;30.50;76.70;;;;;;4995830;28;20058;-84
2023/08/20 08:08:33;;;;;;;7.25;6.55;;;30.60;76.20;;;;;;5002608;28;20598;-84
2023/08/20 08:10:59;;;;;;;6.05;5.50;;;30.60;76.30;;;;;;4993967;28;20031;-84
2023/08/20 08:13:26;;;;;;;6.32;5.60;;;30.70;76.30;;;;;;4991738;28;20014;-84
2023/08/20 08:15:52;;;;;;;6.15;5.55;;;30.80;76.20;;;;;;4984384;28;20114;-85
2023/08/20 08:18:19;;;;;;;6.47;5.63;;;30.90;75.60;;;;;;4993976;28;20165;-83
2023/08/20 08:20:45;;;;;;;6.13;5.53;;;30.90;75.10;;;;;;4991942;28;20027;-81
2023/08/20 08:23:14;;;;;;;5.95;5.45;;;30.90;75.20;;;;;;4991269;28;20094;-82
2023/08/20 08:25:40;;;;;;;6.10;5.60;;;31.10;75.70;;;;;;4987896;28;20026;-82
2023/08/20 08:28:06;;;;;;;6.57;5.97;;;31.10;75.70;;;;;;4986046;28;20505;-82
2023/08/20 08:30:34;;;;;;;6.45;5.78;;;31.10;75.60;;;;;;4997220;28;20038;-82
2023/08/20 08:33:00;;;;;;;8.57;5.75;;;31.20;75.20;;;;;;4976110;28;20026;-83
2023/08/20 08:35:26;;;;;;;5.93;5.35;;;31.30;75.70;;;;;;4993858;28;20041;-83
2023/08/20 08:37:51;;;;;;;9.60;5.35;;;31.40;76.00;;;;;;4993294;28;20054;-82
2023/08/20 08:40:18;;;;;;;6.95;5.45;;;31.40;76.00;;;;;;4986814;28;20395;-83
2023/08/20 08:42:48;;;;;;;5.90;5.30;;;31.40;75.40;;;;;;4995841;28;20114;-83
2023/08/20 08:45:15;;;;;;;6.03;5.43;;;31.50;75.30;;;;;;4977646;28;20583;-84
2023/08/20 08:47:41;;;;;;;5.75;5.25;;;31.60;75.60;;;;;;5000993;28;20102;-84
2023/08/20 08:50:08;;;;;;;5.68;5.18;;;31.60;75.40;;;;;;5000325;28;20050;-84
2023/08/20 08:52:37;;;;;;;6.00;5.00;;;31.70;74.90;;;;;;4997824;28;20030;-85
2023/08/20 08:55:07;;;;;;;7.47;5.78;;;31.80;75.10;;;;;;4975506;28;20039;-84
2023/08/20 08:57:33;;;;;;;5.78;4.97;;;31.90;74.90;;;;;;4993033;28;20112;-84
2023/08/20 08:59:59;;;;;;;5.40;4.90;;;32.00;74.90;;;;;;5002258;28;20463;-84
2023/08/20 09:02:24;;;;;;;5.57;5.03;;;32.10;74.60;;;;;;5001805;28;20019;-84
2023/08/20 09:04:50;;;;;;;5.97;5.47;;;32.10;74.80;;;;;;4979156;28;20491;-85
2023/08/20 09:07:16;;;;;;;5.57;5.07;;;32.20;74.00;;;;;;4996711;28;20053;-85
2023/08/20 09:09:49;;;;;;;6.63;5.53;;;32.30;73.70;;;;;;4979255;28;20477;-84
2023/08/20 09:12:16;;;;;;;6.35;4.70;;;32.40;74.00;;;;;;4977033;28;20386;-84
2023/08/20 09:14:47;;;;;;;5.45;4.95;;;32.40;73.30;;;;;;4992940;28;20109;-84
2023/08/20 09:17:14;;;;;;;6.35;5.20;;;32.50;72.60;;;;;;4983982;28;20690;-83
2023/08/20 09:19:39;;;;;;;5.57;4.75;;;32.50;72.90;;;;;;4983367;28;20078;-87
2023/08/20 09:22:05;;;;;;;6.05;5.45;;;32.50;72.80;;;;;;4995546;28;20019;-87
2023/08/20 09:24:44;;;;;;;5.82;5.22;;;32.70;73.10;;;;;;4999420;28;20463;-84
2023/08/20 09:27:11;;;;;;;5.63;5.05;;;32.70;71.80;;;;;;5003383;28;20026;-83
2023/08/20 09:29:55;;;;;;;7.15;5.10;;;32.80;72.00;;;;;;4980381;28;20042;-83
2023/08/20 09:32:23;;;;;;;6.25;5.20;;;32.90;71.50;;;;;;4974038;28;20030;-83
2023/08/20 09:34:50;;;;;;;6.90;4.78;;;33.00;71.50;;;;;;5008503;28;20042;-83
2023/08/20 09:37:17;;;;;;;9.07;4.60;;;33.10;71.30;;;;;;5008018;28;20105;-82
2023/08/20 09:39:43;;;;;;;4.75;4.35;;;33.20;70.90;;;;;;4977402;28;20038;-82
2023/08/20 09:42:11;;;;;;;4.97;4.57;;;33.20;71.10;;;;;;4995450;28;20029;-82
2023/08/20 09:44:40;;;;;;;5.60;5.10;;;33.40;71.30;;;;;;4977778;28;20039;-82
2023/08/20 09:47:08;;;;;;;5.68;5.07;;;33.50;71.30;;;;;;4994454;28;20026;-82
2023/08/20 09:49:45;;;;;;;7.63;5.35;;;33.60;71.30;;;;;;4995201;28;20057;-84
2023/08/20 09:52:15;;;;;;;6.13;5.07;;;33.70;69.80;;;;;;4995695;28;20026;-84
2023/08/20 09:55:05;;;;;;;6.30;4.68;;;33.80;70.80;;;;;;4995343;28;20034;-85
2023/08/20 09:57:38;;;;;;;5.28;4.80;;;33.90;70.00;;;;;;4994186;28;20114;-84
2023/08/20 10:00:09;;;;;;;4.82;4.43;;;34.00;70.00;;;;;;4997065;28;20042;-83
2023/08/20 10:02:35;;;;;;;4.63;4.22;;;34.10;69.80;;;;;;4979162;28;20026;-82
2023/08/20 10:05:04;;;;;;;4.50;4.10;;;34.20;69.40;;;;;;4998587;28;20093;-83
2023/08/20 10:07:32;;;;;;;5.10;4.63;;;34.20;68.90;;;;;;4975108;28;20092;-83
2023/08/20 10:10:01;;;;;;;5.73;5.13;;;34.30;68.80;;;;;;4995181;28;20426;-82
2023/08/20 10:12:28;;;;;;;9.55;4.40;;;34.50;68.50;;;;;;4994292;28;20034;-83
2023/08/20 10:14:55;;;;;;;5.63;4.65;;;34.60;68.20;;;;;;4988698;28;20125;-84
2023/08/20 10:17:22;;;;;;;4.55;4.15;;;34.70;68.00;;;;;;4976912;28;20060;-84
2023/08/20 10:19:48;;;;;;;4.70;4.20;;;34.70;67.60;;;;;;4988547;28;20034;-82
2023/08/20 10:22:14;;;;;;;5.03;4.22;;;34.90;67.60;;;;;;4997897;28;20022;-82
2023/08/20 10:24:48;;;;;;;6.30;4.65;;;35.00;66.90;;;;;;4994574;28;20114;-82
2023/08/20 10:27:25;;;;;;;5.45;4.38;;;35.00;66.50;;;;;;4992617;28;20088;-82
2023/08/20 10:29:53;;;;;;;4.97;4.47;;;35.10;66.20;;;;;;4994901;28;20037;-82
2023/08/20 10:32:19;;;;;;;5.15;4.53;;;35.20;66.00;;;;;;4976882;28;20049;-82
2023/08/20 10:34:52;;;;;;;4.38;3.97;;;35.30;65.80;;;;;;4976722;28;20079;-81
2023/08/20 10:37:29;;;;;;;4.57;4.18;;;35.40;65.50;;;;;;4993824;28;20072;-81
2023/08/20 10:39:58;;;;;;;4.80;4.40;;;35.50;65.30;;;;;;4993176;28;20037;-82
2023/08/20 10:42:27;;;;;;;4.47;4.10;;;35.50;65.10;;;;;;4993402;28;20029;-81
2023/08/20 10:45:08;;;;;;;4.80;4.32;;;35.70;65.10;;;;;;4992378;28;20022;-82
2023/08/20 10:47:51;;;;;;;5.80;4.32;;;35.80;65.30;;;;;;4986863;28;20073;-81
2023/08/20 10:50:19;;;;;;;4.57;4.18;;;36.00;64.80;;;;;;4992134;28;20132;-81
2023/08/20 10:52:55;;;;;;;4.75;4.35;;;36.20;64.60;;;;;;4992312;28;20054;-82
2023/08/20 10:55:24;;;;;;;4.68;4.28;;;36.30;64.20;;;;;;4996024;28;20043;-81
2023/08/20 10:57:57;;;;;;;8.55;4.57;;;36.40;63.50;;;;;;4999445;28;20042;-82
2023/08/20 11:00:23;;;;;;;7.85;4.63;;;36.40;62.70;;;;;;4995819;28;20082;-81
2023/08/20 11:02:49;;;;;;;4.65;4.25;;;36.40;62.80;;;;;;4992811;28;20022;-81
2023/08/20 11:05:21;;;;;;;5.82;4.95;;;36.30;62.70;;;;;;4986370;28;20043;-81
2023/08/20 11:07:48;;;;;;;4.40;4.00;;;36.30;63.00;;;;;;4987813;28;20118;-81
2023/08/20 11:10:18;;;;;;;5.80;5.05;;;36.50;63.50;;;;;;4970612;28;20045;-80
2023/08/20 11:12:46;;;;;;;5.43;4.75;;;36.70;62.30;;;;;;4986869;28;20594;-80
2023/08/20 11:15:12;;;;;;;4.97;4.47;;;36.90;62.20;;;;;;4991563;28;20078;-82
2023/08/20 11:17:42;;;;;;;5.45;4.95;;;37.00;62.40;;;;;;4972922;28;20035;-83
2023/08/20 11:20:11;;;;;;;5.45;4.40;;;37.30;62.00;;;;;;4988600;28;20472;-83
2023/08/20 11:22:38;;;;;;;7.18;4.55;;;37.50;60.90;;;;;;4983831;28;20077;-83
2023/08/20 11:25:05;;;;;;;5.20;4.70;;;37.60;60.40;;;;;;4984672;28;20040;-84
2023/08/20 11:27:31;;;;;;;8.05;4.72;;;37.60;60.10;;;;;;4989228;28;20037;-84
2023/08/20 11:30:13;;;;;;;5.20;4.70;;;37.70;60.20;;;;;;4991566;28;20097;-84
2023/08/20 11:32:39;;;;;;;5.20;4.72;;;37.70;60.30;;;;;;4984186;28;20089;-82
2023/08/20 11:35:07;;;;;;;5.20;4.70;;;37.90;59.90;;;;;;4976591;28;20042;-81
2023/08/20 11:37:33;;;;;;;4.70;4.10;;;38.10;59.80;;;;;;4998152;28;20036;-82
2023/08/20 11:39:59;;;;;;;5.47;4.28;;;38.30;59.50;;;;;;4998414;28;20022;-84
2023/08/20 11:42:25;;;;;;;4.60;4.20;;;38.50;59.50;;;;;;4991766;28;20022;-82
2023/08/20 11:44:55;;;;;;;4.82;4.40;;;38.70;59.50;;;;;;4987894;28;20045;-83
2023/08/20 11:47:21;;;;;;;5.93;4.40;;;39.00;58.70;;;;;;4988440;28;20602;-84
2023/08/20 11:49:47;;;;;;;8.23;4.63;;;39.20;57.90;;;;;;4976444;28;20134;-83
2023/08/20 11:52:13;;;;;;;6.05;3.80;;;39.40;57.60;;;;;;4974685;28;20033;-83
2023/08/20 11:54:39;;;;;;;4.43;4.03;;;39.60;57.40;;;;;;4992408;28;20022;-83
2023/08/20 11:57:06;;;;;;;5.30;4.80;;;39.80;56.80;;;;;;4972190;28;20034;-84
2023/08/20 11:59:32;;;;;;;4.53;4.13;;;40.00;56.40;;;;;;4992219;28;20035;-83
2023/08/20 12:02:05;;;;;;;4.30;3.90;;;40.30;56.40;;;;;;4989552;28;20489;-83
2023/08/20 12:04:31;;;;;;;4.45;4.05;;;40.40;55.50;;;;;;4987578;28;20392;-84
2023/08/20 12:07:13;;;;;;;8.60;4.53;;;40.60;54.60;;;;;;4974787;28;20470;-83
2023/08/20 12:09:39;;;;;;;5.85;4.28;;;40.70;54.80;;;;;;4993512;28;20104;-84
2023/08/20 12:12:06;;;;;;;4.95;4.45;;;40.80;54.60;;;;;;4994588;28;20034;-84
2023/08/20 12:14:32;;;;;;;4.65;4.20;;;40.90;53.50;;;;;;4979074;28;20038;-84
2023/08/20 12:16:58;;;;;;;4.80;4.40;;;40.90;53.70;;;;;;4996685;28;20101;-83
2023/08/20 12:19:24;;;;;;;4.55;3.80;;;41.00;53.40;;;;;;4996874;28;20029;-84
2023/08/20 12:21:50;;;;;;;4.95;4.50;;;41.20;53.80;;;;;;4990165;28;20042;-83
2023/08/20 12:24:16;;;;;;;7.05;4.28;;;41.20;53.90;;;;;;4996873;28;20053;-84
2023/08/20 12:26:42;;;;;;;6.47;4.68;;;41.40;53.50;;;;;;4996177;28;21342;-84
2023/08/20 12:29:08;;;;;;;4.70;4.30;;;41.50;53.70;;;;;;4978599;28;20038;-83
2023/08/20 12:31:35;;;;;;;4.65;4.25;;;41.50;53.40;;;;;;4994490;28;20099;-86
2023/08/20 12:34:00;;;;;;;5.40;4.50;;;41.60;53.50;;;;;;4992170;28;20063;-84
2023/08/20 12:36:27;;;;;;;5.22;4.40;;;41.70;53.20;;;;;;4996246;28;20066;-84
2023/08/20 12:38:53;;;;;;;10.02;4.68;;;41.70;53.40;;;;;;4979160;28;20026;-83
2023/08/20 12:41:19;;;;;;;5.25;4.75;;;41.70;53.10;;;;;;4978213;28;20022;-84
2023/08/20 12:43:45;;;;;;;5.15;4.65;;;41.70;52.50;;;;;;4979573;28;20034;-84
2023/08/20 12:46:12;;;;;;;5.78;4.47;;;41.70;52.50;;;;;;4995737;28;20034;-83
2023/08/20 12:48:37;;;;;;;4.95;4.10;;;41.70;52.00;;;;;;4998633;28;20015;-85
2023/08/20 12:51:03;;;;;;;5.05;4.45;;;41.70;51.90;;;;;;4999587;28;20706;-83
2023/08/20 12:53:29;;;;;;;4.53;3.97;;;41.70;51.90;;;;;;4995922;28;20034;-84
2023/08/20 12:55:55;;;;;;;7.22;4.40;;;41.70;51.70;;;;;;4996004;28;20045;-84
2023/08/20 12:58:20;;;;;;;4.60;4.20;;;41.70;52.00;;;;;;4975663;28;20047;-84
2023/08/20 13:00:46;;;;;;;4.88;4.35;;;41.70;51.40;;;;;;4994191;28;20033;-84
2023/08/20 13:03:12;;;;;;;7.38;4.47;;;41.60;51.20;;;;;;5006639;28;20038;-84
2023/08/20 13:05:38;;;;;;;7.47;4.50;;;41.50;51.10;;;;;;5003795;28;20031;-84
2023/08/20 13:08:04;;;;;;;6.32;4.90;;;41.40;51.10;;;;;;4978607;28;20041;-86
2023/08/20 13:10:30;;;;;;;4.05;3.65;;;41.30;51.40;;;;;;4997592;28;20026;-83
2023/08/20 13:13:01;;;;;;;5.03;4.53;;;41.30;51.80;;;;;;4981202;28;20041;-83
2023/08/20 13:15:27;;;;;;;4.50;4.10;;;41.10;51.80;;;;;;4997802;28;20034;-84
2023/08/20 13:17:53;;;;;;;5.05;4.55;;;41.10;51.90;;;;;;4998819;28;20015;-84
2023/08/20 13:20:24;;;;;;;5.60;4.50;;;41.00;52.40;;;;;;4982093;28;20380;-83
2023/08/20 13:23:01;;;;;;;7.28;4.45;;;40.80;52.30;;;;;;4995943;28;20150;-84
2023/08/20 13:25:27;;;;;;;5.00;4.25;;;40.70;53.10;;;;;;4985515;28;20031;-83
2023/08/20 13:27:54;;;;;;;5.22;4.68;;;40.60;53.20;;;;;;4977136;28;20077;-83